createdAt,value
2017-08-11T00:01:30.638Z,51.32
2017-08-11T00:03:58.147Z,51.29
2017-08-11T00:06:25.660Z,51.26
2017-08-11T00:08:53.218Z,51.18
2017-08-11T00:11:20.782Z,51.17
2017-08-11T00:13:48.304Z,51.14
2017-08-11T00:16:15.813Z,51.19
2017-08-11T00:18:43.361Z,51.06
2017-08-11T00:21:10.940Z,51.08
2017-08-11T00:23:38.473Z,51.09
2017-08-11T00:26:05.993Z,51.11
2017-08-11T00:28:33.545Z,51.00
2017-08-11T00:31:01.059Z,50.92
2017-08-11T00:33:28.612Z,50.96
2017-08-11T00:35:56.154Z,50.90
2017-08-11T00:38:23.698Z,50.89
2017-08-11T00:40:51.270Z,50.85
2017-08-11T00:43:18.833Z,50.82
2017-08-11T00:45:46.349Z,50.90
2017-08-11T00:48:13.855Z,50.84
2017-08-11T00:50:41.430Z,50.85
2017-08-11T00:53:08.935Z,50.74
2017-08-11T00:55:36.489Z,50.79
2017-08-11T00:58:04.009Z,50.80
2017-08-11T01:00:31.513Z,50.74
2017-08-11T01:02:59.065Z,50.46
2017-08-11T01:05:26.589Z,50.72
2017-08-11T01:07:54.092Z,50.58
2017-08-11T01:10:21.640Z,50.53
2017-08-11T01:12:49.152Z,50.62
2017-08-11T01:15:16.704Z,50.69
2017-08-11T01:17:44.216Z,50.85
2017-08-11T01:20:11.761Z,50.85
2017-08-11T01:22:39.303Z,51.01
2017-08-11T01:25:06.865Z,51.01
2017-08-11T01:27:34.380Z,51.08
2017-08-11T01:30:01.886Z,51.22
2017-08-11T01:32:29.445Z,51.24
2017-08-11T01:34:56.936Z,51.33
2017-08-11T01:37:24.441Z,51.29
2017-08-11T01:39:52.008Z,51.32
2017-08-11T01:42:19.549Z,51.31
2017-08-11T01:44:47.045Z,51.27
2017-08-11T01:47:14.608Z,51.28
2017-08-11T01:49:42.159Z,51.28
2017-08-11T01:52:09.657Z,51.39
2017-08-11T01:54:37.230Z,51.38
2017-08-11T01:57:04.741Z,51.39
2017-08-11T01:59:32.233Z,51.36
2017-08-11T02:01:59.822Z,51.33
2017-08-11T02:04:27.365Z,51.27
2017-08-11T02:06:54.867Z,51.30
2017-08-11T02:09:22.405Z,51.30
2017-08-11T02:11:49.944Z,51.27
2017-08-11T02:14:17.483Z,51.30
2017-08-11T02:16:44.981Z,51.34
2017-08-11T02:19:12.526Z,51.27
2017-08-11T02:21:40.039Z,51.33
2017-08-11T02:24:07.610Z,51.36
2017-08-11T02:26:35.166Z,51.28
2017-08-11T02:29:02.689Z,51.35
2017-08-11T02:31:30.265Z,51.31
2017-08-11T02:33:57.806Z,51.32
2017-08-11T02:36:25.309Z,51.30
2017-08-11T02:38:52.853Z,51.29
2017-08-11T02:41:20.357Z,51.25
2017-08-11T02:43:47.897Z,51.38
2017-08-11T02:46:15.401Z,51.35
2017-08-11T02:48:42.909Z,51.42
2017-08-11T02:51:10.454Z,51.36
2017-08-11T02:53:37.989Z,51.40
2017-08-11T02:56:05.525Z,51.40
2017-08-11T02:58:33.017Z,51.40
2017-08-11T03:01:00.577Z,51.37
2017-08-11T03:03:28.112Z,51.42
2017-08-11T03:05:55.618Z,51.37
2017-08-11T03:08:23.175Z,51.38
2017-08-11T03:10:50.665Z,51.38
2017-08-11T03:13:18.182Z,51.39
2017-08-11T03:15:45.746Z,51.39
2017-08-11T03:18:13.257Z,51.43
2017-08-11T03:20:40.805Z,51.40
2017-08-11T03:23:08.307Z,51.38
2017-08-11T03:25:35.804Z,51.39
2017-08-11T03:28:03.356Z,51.41
2017-08-11T03:30:30.859Z,51.44
2017-08-11T03:32:58.428Z,51.38
2017-08-11T03:35:25.973Z,51.43
2017-08-11T03:37:53.483Z,51.46
2017-08-11T03:40:20.981Z,51.48
2017-08-11T03:42:48.517Z,51.52
2017-08-11T03:45:16.024Z,51.49
2017-08-11T03:47:43.584Z,51.45
2017-08-11T03:50:11.094Z,51.42
2017-08-11T03:52:38.585Z,51.36
2017-08-11T03:55:06.445Z,51.30
2017-08-11T03:57:33.946Z,51.22
2017-08-11T04:00:01.452Z,51.15
2017-08-11T04:02:29.001Z,51.07
2017-08-11T04:04:56.530Z,50.95
2017-08-11T04:07:24.039Z,50.94
2017-08-11T04:09:51.572Z,50.89
2017-08-11T04:12:19.072Z,50.88
2017-08-11T04:14:46.612Z,50.78
2017-08-11T04:17:14.155Z,50.76
2017-08-11T04:19:41.689Z,50.68
2017-08-11T04:22:09.242Z,50.66
2017-08-11T04:24:36.850Z,50.57
2017-08-11T04:27:04.358Z,50.58
2017-08-11T04:29:31.913Z,50.53
2017-08-11T04:31:59.601Z,50.47
2017-08-11T04:34:27.108Z,50.37
2017-08-11T04:36:54.618Z,50.34
2017-08-11T04:39:22.201Z,50.30
2017-08-11T04:41:49.726Z,50.23
2017-08-11T04:44:17.230Z,50.22
2017-08-11T04:46:44.814Z,50.15
2017-08-11T04:49:12.322Z,50.13
2017-08-11T04:51:39.875Z,50.11
2017-08-11T04:54:07.433Z,50.05
2017-08-11T04:56:34.946Z,49.98
2017-08-11T04:59:02.466Z,49.94
2017-08-11T05:01:30.101Z,49.92
2017-08-11T05:03:57.614Z,49.83
2017-08-11T05:06:25.132Z,49.83
2017-08-11T05:08:52.722Z,49.79
2017-08-11T05:11:20.284Z,49.76
2017-08-11T05:13:47.791Z,49.75
2017-08-11T05:16:15.393Z,49.71
2017-08-11T05:18:42.928Z,49.69
2017-08-11T05:21:10.449Z,49.66
2017-08-11T05:23:38.000Z,49.61
2017-08-11T05:26:05.528Z,49.54
2017-08-11T05:28:33.097Z,49.50
2017-08-11T05:31:00.690Z,49.46
2017-08-11T05:33:28.283Z,49.42
2017-08-11T05:35:55.837Z,49.40
2017-08-11T05:38:23.352Z,49.34
2017-08-11T05:40:50.974Z,49.20
2017-08-11T05:43:18.722Z,49.20
2017-08-11T05:45:46.281Z,49.33
2017-08-11T05:48:13.822Z,49.30
2017-08-11T05:50:41.527Z,49.26
2017-08-11T05:53:09.246Z,49.34
2017-08-11T05:55:36.868Z,49.27
2017-08-11T05:58:04.432Z,49.31
2017-08-11T06:00:31.939Z,49.20
2017-08-11T06:02:59.650Z,49.16
2017-08-11T06:05:27.213Z,49.25
2017-08-11T06:07:54.799Z,49.26
2017-08-11T06:10:22.415Z,49.28
2017-08-11T06:12:50.291Z,49.15
2017-08-11T06:15:17.825Z,49.12
2017-08-11T06:17:45.465Z,49.25
2017-08-11T06:20:13.047Z,49.15
2017-08-11T06:22:40.826Z,49.01
2017-08-11T06:25:08.526Z,49.09
2017-08-11T06:27:36.369Z,48.92
2017-08-11T06:30:04.017Z,48.93
2017-08-11T06:32:31.582Z,48.88
2017-08-11T06:35:05.521Z,48.83
2017-08-11T06:37:33.748Z,48.96
2017-08-11T06:40:01.592Z,48.73
2017-08-11T06:42:29.507Z,48.73
2017-08-11T06:45:04.808Z,48.82
2017-08-11T06:58:55.588Z,48.69
2017-08-11T07:01:23.482Z,49.01
2017-08-11T07:03:51.292Z,48.65
2017-08-11T07:06:19.530Z,48.83
2017-08-11T07:08:47.262Z,48.78
2017-08-11T07:11:14.997Z,48.77
2017-08-11T07:13:42.550Z,48.85
2017-08-11T07:16:10.575Z,48.83
2017-08-11T07:18:38.216Z,48.79
2017-08-11T07:21:05.809Z,48.75
2017-08-11T07:23:33.470Z,48.64
2017-08-11T07:26:01.123Z,48.60
2017-08-11T07:28:29.395Z,48.55
2017-08-11T07:30:57.167Z,48.49
2017-08-11T07:33:24.830Z,48.47
2017-08-11T07:35:52.594Z,48.57
2017-08-11T07:38:20.219Z,48.48
2017-08-11T07:40:47.777Z,48.54
2017-08-11T07:43:15.436Z,48.49
2017-08-11T07:45:42.981Z,48.36
2017-08-11T07:48:10.606Z,48.37
2017-08-11T07:50:38.759Z,48.39
2017-08-11T07:53:06.393Z,48.41
2017-08-11T07:55:34.082Z,48.43
2017-08-11T07:58:02.455Z,48.44
2017-08-11T08:00:30.819Z,48.37
2017-08-11T08:02:58.358Z,48.34
2017-08-11T08:05:25.923Z,48.23
2017-08-11T08:07:53.509Z,48.20
2017-08-11T08:10:21.173Z,48.20
2017-08-11T08:12:48.704Z,48.23
2017-08-11T08:15:16.534Z,48.14
2017-08-11T08:17:44.374Z,48.13
2017-08-11T08:20:12.087Z,48.07
2017-08-11T08:22:39.828Z,48.03
2017-08-11T08:25:07.840Z,47.97
2017-08-11T08:27:35.436Z,47.87
2017-08-11T08:30:04.257Z,47.76
2017-08-11T08:32:31.926Z,47.64
2017-08-11T08:34:59.662Z,47.66
2017-08-11T08:37:27.387Z,47.58
2017-08-11T08:39:55.050Z,47.57
2017-08-11T08:42:22.613Z,47.45
2017-08-11T08:44:50.272Z,47.39
2017-08-11T08:47:17.809Z,47.40
2017-08-11T08:49:45.535Z,47.12
2017-08-11T08:52:13.165Z,46.85
2017-08-11T08:54:40.756Z,46.93
2017-08-11T08:57:08.398Z,46.88
2017-08-11T08:59:36.094Z,46.83
2017-08-11T09:02:04.959Z,46.80
2017-08-11T09:04:32.593Z,46.69
2017-08-11T09:07:00.292Z,46.50
2017-08-11T09:09:45.697Z,46.48
2017-08-11T09:12:13.890Z,46.43
2017-08-11T09:14:42.632Z,46.38
2017-08-11T09:17:10.713Z,46.33
2017-08-11T09:19:38.547Z,46.23
2017-08-11T09:22:06.207Z,46.21
2017-08-11T09:24:33.893Z,46.24
2017-08-11T09:27:01.909Z,46.19
2017-08-11T09:29:29.583Z,46.24
2017-08-11T09:31:58.111Z,46.20
2017-08-11T09:34:25.911Z,46.21
2017-08-11T09:37:40.740Z,46.15
2017-08-11T09:40:08.579Z,46.33
2017-08-11T09:48:20.003Z,46.07
2017-08-11T10:27:21.372Z,45.76
2017-08-11T10:46:30.740Z,45.74
2017-08-11T10:48:58.851Z,45.69
2017-08-11T10:51:26.443Z,45.60
2017-08-11T10:53:54.012Z,45.66
2017-08-11T10:56:21.667Z,45.71
2017-08-11T10:58:49.220Z,45.69
2017-08-11T11:01:16.890Z,45.57
2017-08-11T11:03:44.586Z,45.58
2017-08-11T11:06:15.181Z,45.43
2017-08-11T11:08:50.839Z,45.36
2017-08-11T11:11:19.547Z,45.43
2017-08-11T11:13:47.150Z,45.47
2017-08-11T11:16:14.742Z,45.35
2017-08-11T11:18:42.543Z,45.30
2017-08-11T11:21:13.757Z,45.36
2017-08-11T11:23:41.417Z,45.43
2017-08-11T11:26:09.093Z,45.31
2017-08-11T11:28:38.068Z,45.33
2017-08-11T11:31:05.723Z,45.32
2017-08-11T11:33:33.310Z,45.33
2017-08-11T11:36:00.996Z,45.35
2017-08-11T11:38:28.542Z,45.24
2017-08-11T11:40:57.117Z,45.21
2017-08-11T11:43:24.841Z,45.15
2017-08-11T11:45:52.355Z,45.19
2017-08-11T11:48:20.625Z,45.13
2017-08-11T11:50:48.173Z,45.21
2017-08-11T11:53:15.739Z,45.20
2017-08-11T11:55:43.363Z,45.07
2017-08-11T11:58:11.022Z,45.02
2017-08-11T12:00:39.420Z,45.02
2017-08-11T12:03:07.258Z,44.95
2017-08-11T12:05:37.938Z,44.95
2017-08-11T12:08:10.261Z,44.90
2017-08-11T12:10:39.228Z,44.97
2017-08-11T12:13:07.182Z,44.99
2017-08-11T12:15:34.937Z,44.90
2017-08-11T12:18:04.104Z,44.92
2017-08-11T12:20:32.507Z,44.97
2017-08-11T12:23:01.648Z,44.99
2017-08-11T12:25:29.422Z,44.88
2017-08-11T12:27:57.121Z,44.93
2017-08-11T12:30:24.660Z,44.94
2017-08-11T12:32:52.453Z,44.96
2017-08-11T12:35:20.130Z,44.86
2017-08-11T12:37:47.726Z,44.90
2017-08-11T12:40:22.352Z,44.81
2017-08-11T12:42:54.816Z,44.84
2017-08-11T12:45:24.178Z,44.87
2017-08-11T12:47:51.764Z,44.88
2017-08-11T13:06:07.829Z,44.50
2017-08-11T13:08:35.921Z,44.47
2017-08-11T13:11:04.539Z,44.47
2017-08-11T13:13:32.292Z,44.37
2017-08-11T13:15:59.881Z,44.37
2017-08-11T13:18:27.431Z,44.34
2017-08-11T13:20:55.038Z,44.22
2017-08-11T13:23:26.030Z,44.23
2017-08-11T13:25:53.595Z,44.13
2017-08-11T13:28:21.205Z,44.10
2017-08-11T13:30:48.731Z,44.02
2017-08-11T13:33:16.333Z,43.92
2017-08-11T13:35:43.922Z,43.90
2017-08-11T13:38:11.930Z,43.74
2017-08-11T13:40:39.585Z,43.69
2017-08-11T13:43:07.481Z,43.57
2017-08-11T13:45:35.302Z,43.54
2017-08-11T13:48:02.956Z,43.55
2017-08-11T13:50:38.031Z,43.53
2017-08-11T13:53:06.014Z,43.61
2017-08-11T13:55:33.757Z,43.52
2017-08-11T13:58:01.583Z,43.48
2017-08-11T14:00:29.319Z,43.39
2017-08-11T14:02:56.965Z,43.34
2017-08-11T14:05:24.506Z,43.31
2017-08-11T14:07:52.137Z,43.35
2017-08-11T14:10:26.712Z,43.28
2017-08-11T14:12:54.608Z,43.20
2017-08-11T14:15:22.460Z,43.30
2017-08-11T14:17:50.037Z,43.15
2017-08-11T14:30:25.713Z,42.94
2017-08-11T14:32:53.232Z,43.03
2017-08-11T14:35:20.769Z,43.00
2017-08-11T14:37:48.351Z,42.79
2017-08-11T14:50:24.527Z,42.55
2017-08-11T14:52:52.106Z,42.38
2017-08-11T14:55:19.658Z,42.43
2017-08-11T14:57:47.256Z,42.42
2017-08-11T15:10:22.951Z,42.29
2017-08-11T15:12:50.505Z,42.16
2017-08-11T15:15:18.087Z,42.02
2017-08-11T15:17:45.613Z,41.94
2017-08-11T15:20:13.179Z,41.96
2017-08-11T15:22:40.686Z,41.93
2017-08-11T15:25:08.209Z,42.01
2017-08-11T15:27:35.823Z,41.89
2017-08-11T15:30:03.544Z,41.88
2017-08-11T15:32:31.097Z,41.73
2017-08-11T15:34:58.674Z,41.88
2017-08-11T15:51:37.333Z,41.20
2017-08-11T15:54:04.909Z,41.18
2017-08-11T15:56:32.432Z,41.12
2017-08-11T15:59:00.054Z,41.16
2017-08-11T16:01:27.576Z,41.11
2017-08-11T16:03:55.127Z,40.94
2017-08-11T16:06:22.670Z,40.79
2017-08-11T16:08:50.222Z,40.81
2017-08-11T16:11:17.761Z,40.76
2017-08-11T16:13:45.265Z,40.72
2017-08-11T16:16:12.826Z,40.62
2017-08-11T16:18:40.382Z,40.65
2017-08-11T16:21:07.878Z,40.65
2017-08-11T16:23:35.439Z,40.74
2017-08-11T16:26:02.981Z,40.77
2017-08-11T16:28:30.482Z,40.84
2017-08-11T16:30:58.037Z,40.83
2017-08-11T16:33:25.564Z,40.93
2017-08-11T16:35:53.069Z,40.92
2017-08-11T16:38:20.612Z,41.00
2017-08-11T16:40:48.121Z,41.07
2017-08-11T16:43:15.619Z,41.11
2017-08-11T16:45:43.182Z,41.25
2017-08-11T16:48:10.723Z,41.44
2017-08-11T16:50:38.223Z,41.33
2017-08-11T16:53:05.769Z,41.36
2017-08-11T16:55:33.267Z,41.40
2017-08-11T16:58:00.853Z,41.43
2017-08-11T17:00:35.963Z,41.47
2017-08-11T17:03:03.521Z,41.50
2017-08-11T17:05:31.025Z,41.50
2017-08-11T17:07:58.531Z,41.51
2017-08-11T17:10:26.069Z,41.49
2017-08-11T17:12:53.587Z,41.50
2017-08-11T17:15:21.133Z,41.46
2017-08-11T17:17:48.629Z,41.36
2017-08-11T17:20:23.537Z,41.28
2017-08-11T17:22:51.037Z,41.19
2017-08-11T17:25:18.538Z,41.08
2017-08-11T17:27:46.078Z,41.01
2017-08-11T17:40:21.514Z,40.75
2017-08-11T17:42:49.053Z,40.72
2017-08-11T17:45:16.550Z,40.64
2017-08-11T17:47:44.103Z,40.54
2017-08-11T17:50:11.612Z,40.44
2017-08-11T17:52:39.110Z,40.49
2017-08-11T17:55:06.649Z,40.46
2017-08-11T17:57:34.199Z,40.42
2017-08-11T18:00:01.709Z,40.45
2017-08-11T18:02:29.254Z,40.40
2017-08-11T18:04:56.749Z,40.37
2017-08-11T18:07:24.258Z,40.40
2017-08-11T18:09:59.485Z,40.38
2017-08-11T18:12:26.991Z,40.54
2017-08-11T18:14:54.502Z,40.42
2017-08-11T18:17:22.034Z,40.39
2017-08-11T18:19:49.554Z,40.29
2017-08-11T18:22:17.122Z,40.40
2017-08-11T18:24:44.672Z,40.49
2017-08-11T18:27:12.225Z,40.47
2017-08-11T18:29:39.741Z,40.55
2017-08-11T18:32:07.498Z,40.70
2017-08-11T18:34:35.088Z,40.79
2017-08-11T18:37:02.725Z,40.79
2017-08-11T18:39:30.437Z,40.84
2017-08-11T18:41:58.031Z,41.30
2017-08-11T18:44:25.601Z,41.08
2017-08-11T18:46:53.120Z,41.03
2017-08-11T18:49:21.182Z,40.98
2017-08-11T18:51:48.705Z,41.09
2017-08-11T18:54:16.322Z,41.14
2017-08-11T18:56:43.903Z,41.18
2017-08-11T18:59:11.519Z,41.23
2017-08-11T19:01:39.091Z,41.29
2017-08-11T19:04:06.844Z,41.33
2017-08-11T19:06:34.485Z,41.35
2017-08-11T19:09:02.640Z,41.42
2017-08-11T19:11:30.460Z,41.45
2017-08-11T19:13:58.101Z,41.53
2017-08-11T19:16:25.645Z,41.69
2017-08-11T19:18:53.203Z,41.68
2017-08-11T19:21:20.759Z,41.66
2017-08-11T19:23:48.345Z,41.70
2017-08-11T19:26:15.961Z,41.71
2017-08-11T19:28:43.625Z,41.80
2017-08-11T19:31:11.171Z,41.80
2017-08-11T19:33:38.749Z,41.86
2017-08-11T19:36:08.233Z,41.88
2017-08-11T19:38:36.450Z,41.87
2017-08-11T19:41:03.964Z,41.89
2017-08-11T19:43:31.490Z,41.96
2017-08-11T19:45:59.033Z,41.95
2017-08-11T19:48:26.569Z,42.03
2017-08-11T19:50:54.080Z,42.04
2017-08-11T19:53:21.622Z,42.04
2017-08-11T19:55:49.201Z,42.11
2017-08-11T19:58:16.716Z,42.14
2017-08-11T20:00:44.227Z,42.11
2017-08-11T20:03:11.777Z,42.13
2017-08-11T20:05:39.289Z,42.19
2017-08-11T20:08:06.873Z,42.19
2017-08-11T20:10:34.382Z,42.21
2017-08-11T20:13:01.889Z,42.22
2017-08-11T20:15:29.436Z,42.21
2017-08-11T20:17:56.937Z,42.24
2017-08-11T20:20:24.497Z,42.25
2017-08-11T20:22:52.004Z,42.30
2017-08-11T20:25:19.512Z,42.33
2017-08-11T20:27:47.085Z,42.39
2017-08-11T20:30:14.598Z,42.37
2017-08-11T20:32:42.139Z,42.38
2017-08-11T20:35:09.693Z,42.41
2017-08-11T20:37:37.289Z,42.43
2017-08-11T20:40:04.793Z,42.47
2017-08-11T20:42:32.341Z,42.43
2017-08-11T20:44:59.936Z,42.46
2017-08-11T20:47:27.443Z,42.52
2017-08-11T20:49:55.001Z,42.53
2017-08-11T20:52:22.505Z,42.54
2017-08-11T20:54:50.055Z,42.58
2017-08-11T20:57:17.601Z,42.60
2017-08-11T20:59:45.114Z,42.63
2017-08-11T21:02:12.660Z,42.63
2017-08-11T21:04:40.242Z,42.63
2017-08-11T21:07:07.752Z,42.67
2017-08-11T21:09:35.265Z,42.70
2017-08-11T21:12:02.817Z,42.72
2017-08-11T21:14:30.389Z,42.74
2017-08-11T21:16:57.945Z,42.80
2017-08-11T21:19:25.455Z,42.82
2017-08-11T21:21:52.966Z,42.88
2017-08-11T21:24:20.517Z,42.88
2017-08-11T21:26:48.079Z,42.88
2017-08-11T21:29:15.589Z,42.93
2017-08-11T21:31:43.097Z,42.94
2017-08-11T21:34:10.646Z,42.98
2017-08-11T21:36:38.149Z,42.99
2017-08-11T21:39:05.704Z,43.03
2017-08-11T21:41:33.252Z,43.08
2017-08-11T21:44:00.808Z,43.08
2017-08-11T21:46:28.327Z,43.09
2017-08-11T21:48:55.837Z,43.10
2017-08-11T21:51:23.392Z,43.13
2017-08-11T21:53:50.950Z,43.19
2017-08-11T21:56:18.463Z,43.19
2017-08-11T21:58:45.982Z,43.23
2017-08-11T22:01:13.526Z,43.27
2017-08-11T22:03:41.024Z,43.31
2017-08-11T22:06:08.646Z,43.35
2017-08-11T22:08:36.160Z,43.36
2017-08-11T22:11:03.732Z,43.39
2017-08-11T22:13:31.354Z,43.43
2017-08-11T22:15:58.925Z,43.47
2017-08-11T22:18:26.432Z,43.50
2017-08-11T22:20:53.937Z,43.56
2017-08-11T22:23:21.486Z,43.60
2017-08-11T22:25:48.998Z,43.61
2017-08-11T22:28:16.548Z,43.65
2017-08-11T22:30:44.078Z,43.68
2017-08-11T22:33:11.584Z,43.74
2017-08-11T22:35:39.132Z,43.76
2017-08-11T22:38:06.640Z,43.79
2017-08-11T22:40:34.181Z,43.81
2017-08-11T22:43:01.723Z,43.84
2017-08-11T22:45:29.221Z,43.88
2017-08-11T22:47:56.778Z,43.89
2017-08-11T22:50:24.285Z,43.91
2017-08-11T22:52:51.781Z,43.98
2017-08-11T22:55:19.323Z,44.02
2017-08-11T22:57:46.833Z,44.03
2017-08-11T23:00:14.378Z,44.09
2017-08-11T23:02:41.938Z,44.10
2017-08-11T23:05:09.457Z,44.12
2017-08-11T23:07:36.972Z,44.16
2017-08-11T23:10:04.511Z,44.23
2017-08-11T23:12:32.050Z,44.26
2017-08-11T23:14:59.664Z,44.33
2017-08-11T23:17:27.173Z,44.35
2017-08-11T23:19:54.741Z,44.40
2017-08-11T23:22:22.236Z,44.45
2017-08-11T23:24:49.741Z,44.51
2017-08-11T23:27:17.290Z,44.56
2017-08-11T23:29:44.805Z,44.61
2017-08-11T23:32:12.303Z,44.64
2017-08-11T23:34:39.866Z,44.69
2017-08-11T23:37:07.377Z,44.72
2017-08-11T23:39:34.886Z,44.80
2017-08-11T23:42:02.456Z,44.88
2017-08-11T23:44:29.964Z,44.94
2017-08-11T23:46:57.475Z,45.00
2017-08-11T23:49:25.030Z,45.06
2017-08-11T23:51:52.540Z,45.15
2017-08-11T23:54:20.074Z,45.18
2017-08-11T23:56:47.569Z,45.28
2017-08-11T23:59:15.118Z,45.30
